sensor_id;sensor_type;location;lat;lon;timestamp;pressure;altitude;pressure_sealevel;temperature;humidity
63700;BME280;49845;47.130;142.766;2022-12-18T00:00:31;99195.41;;;-12.62;78.76
63700;BME280;49845;47.130;142.766;2022-12-18T00:03:42;99187.94;;;-12.60;77.92
63700;BME280;49845;47.130;142.766;2022-12-18T00:06:22;99131.69;;;-12.90;77.73
63700;BME280;49845;47.130;142.766;2022-12-18T00:09:24;99103.25;;;-12.89;77.16
63700;BME280;49845;47.130;142.766;2022-12-18T00:12:11;99180.47;;;-12.29;77.14
63700;BME280;49845;47.130;142.766;2022-12-18T00:15:06;99175.44;;;-12.14;76.73
63700;BME280;49845;47.130;142.766;2022-12-18T00:17:47;99179.22;;;-12.06;76.69
63700;BME280;49845;47.130;142.766;2022-12-18T00:20:30;99178.72;;;-12.00;76.19
63700;BME280;49845;47.130;142.766;2022-12-18T00:23:15;99166.03;;;-12.02;76.32
63700;BME280;49845;47.130;142.766;2022-12-18T00:25:58;99171.03;;;-11.87;76.44
63700;BME280;49845;47.130;142.766;2022-12-18T00:28:49;99144.91;;;-11.89;75.58
63700;BME280;49845;47.130;142.766;2022-12-18T00:31:43;99140.22;;;-11.81;75.71
63700;BME280;49845;47.130;142.766;2022-12-18T00:34:28;99146.47;;;-11.75;75.60
63700;BME280;49845;47.130;142.766;2022-12-18T00:37:14;99139.88;;;-11.73;75.21
63700;BME280;49845;47.130;142.766;2022-12-18T00:40:11;99128.59;;;-11.79;75.25
63700;BME280;49845;47.130;142.766;2022-12-18T00:42:49;99119.72;;;-11.73;75.64
63700;BME280;49845;47.130;142.766;2022-12-18T00:45:48;99126.81;;;-11.65;75.27
63700;BME280;49845;47.130;142.766;2022-12-18T00:48:31;99112.63;;;-11.63;74.91
63700;BME280;49845;47.130;142.766;2022-12-18T00:51:29;99103.34;;;-11.64;74.88
63700;BME280;49845;47.130;142.766;2022-12-18T00:54:07;99105.41;;;-11.57;75.43
63700;BME280;49845;47.130;142.766;2022-12-18T00:56:58;99110.75;;;-11.51;74.75
63700;BME280;49845;47.130;142.766;2022-12-18T00:59:52;99111.06;;;-11.61;74.53
63700;BME280;49845;47.130;142.766;2022-12-18T01:02:39;99096.41;;;-11.68;75.02
63700;BME280;49845;47.130;142.766;2022-12-18T01:05:26;99089.78;;;-11.66;75.16
63700;BME280;49845;47.130;142.766;2022-12-18T01:08:20;99071.28;;;-11.51;75.21
63700;BME280;49845;47.130;142.766;2022-12-18T01:11:12;99091.94;;;-11.41;75.04
63700;BME280;49845;47.130;142.766;2022-12-18T01:14:05;99057.00;;;-11.34;74.59
63700;BME280;49845;47.130;142.766;2022-12-18T01:17:01;99061.63;;;-11.09;74.29
63700;BME280;49845;47.130;142.766;2022-12-18T01:19:35;99059.53;;;-11.17;73.79
63700;BME280;49845;47.130;142.766;2022-12-18T01:22:20;99035.75;;;-11.39;73.70
63700;BME280;49845;47.130;142.766;2022-12-18T01:25:23;99041.25;;;-11.30;73.85
63700;BME280;49845;47.130;142.766;2022-12-18T01:28:01;99040.09;;;-11.36;74.07
63700;BME280;49845;47.130;142.766;2022-12-18T01:30:47;99026.53;;;-11.38;74.32
63700;BME280;49845;47.130;142.766;2022-12-18T01:33:47;99027.41;;;-11.38;74.55
63700;BME280;49845;47.130;142.766;2022-12-18T01:36:32;99026.59;;;-11.20;74.22
63700;BME280;49845;47.130;142.766;2022-12-18T01:39:15;98995.63;;;-11.18;74.14
63700;BME280;49845;47.130;142.766;2022-12-18T01:42:10;99009.84;;;-11.02;73.70
63700;BME280;49845;47.130;142.766;2022-12-18T01:44:59;98996.25;;;-10.88;74.34
63700;BME280;49845;47.130;142.766;2022-12-18T01:48:05;98986.56;;;-10.78;73.99
63700;BME280;49845;47.130;142.766;2022-12-18T01:50:57;98981.59;;;-10.59;74.10
63700;BME280;49845;47.130;142.766;2022-12-18T01:53:33;98974.88;;;-10.40;73.62
63700;BME280;49845;47.130;142.766;2022-12-18T01:56:21;98951.03;;;-10.65;72.98
63700;BME280;49845;47.130;142.766;2022-12-18T01:59:11;98960.31;;;-10.64;72.62
63700;BME280;49845;47.130;142.766;2022-12-18T02:02:09;98953.81;;;-10.59;73.10
63700;BME280;49845;47.130;142.766;2022-12-18T02:04:50;98951.47;;;-10.36;72.50
63700;BME280;49845;47.130;142.766;2022-12-18T02:07:36;98959.06;;;-10.17;71.94
63700;BME280;49845;47.130;142.766;2022-12-18T02:10:28;98944.44;;;-9.85;71.19
63700;BME280;49845;47.130;142.766;2022-12-18T02:13:20;98939.25;;;-10.08;70.98
63700;BME280;49845;47.130;142.766;2022-12-18T02:16:36;98940.25;;;-10.43;72.01
63700;BME280;49845;47.130;142.766;2022-12-18T02:19:39;98936.09;;;-10.78;72.96
63700;BME280;49845;47.130;142.766;2022-12-18T02:22:29;98911.97;;;-11.27;73.71
63700;BME280;49845;47.130;142.766;2022-12-18T02:25:31;98935.06;;;-11.36;75.19
63700;BME280;49845;47.130;142.766;2022-12-18T02:28:20;98919.34;;;-11.48;75.79
63700;BME280;49845;47.130;142.766;2022-12-18T02:31:23;98911.44;;;-11.38;76.02
63700;BME280;49845;47.130;142.766;2022-12-18T02:34:13;98914.88;;;-11.36;75.75
63700;BME280;49845;47.130;142.766;2022-12-18T02:36:55;98899.03;;;-11.33;76.10
63700;BME280;49845;47.130;142.766;2022-12-18T02:39:39;98881.91;;;-11.40;76.23
63700;BME280;49845;47.130;142.766;2022-12-18T02:43:07;98882.19;;;-11.34;76.23
63700;BME280;49845;47.130;142.766;2022-12-18T02:46:20;98863.31;;;-11.24;76.41
63700;BME280;49845;47.130;142.766;2022-12-18T02:49:27;98874.44;;;-11.03;76.25
63700;BME280;49845;47.130;142.766;2022-12-18T02:52:27;98879.47;;;-11.03;76.12
63700;BME280;49845;47.130;142.766;2022-12-18T02:55:24;98877.00;;;-11.01;76.41
63700;BME280;49845;47.130;142.766;2022-12-18T02:58:10;98839.25;;;-11.00;75.93
63700;BME280;49845;47.130;142.766;2022-12-18T03:00:53;98844.41;;;-10.97;76.39
63700;BME280;49845;47.130;142.766;2022-12-18T03:03:51;98820.91;;;-10.96;76.31
63700;BME280;49845;47.130;142.766;2022-12-18T03:06:30;98822.38;;;-11.01;76.13
63700;BME280;49845;47.130;142.766;2022-12-18T03:09:17;98813.88;;;-11.03;76.75
63700;BME280;49845;47.130;142.766;2022-12-18T03:12:18;98805.78;;;-10.96;76.27
63700;BME280;49845;47.130;142.766;2022-12-18T03:15:06;98805.50;;;-11.02;76.22
63700;BME280;49845;47.130;142.766;2022-12-18T03:17:59;98807.00;;;-10.88;75.95
63700;BME280;49845;47.130;142.766;2022-12-18T03:21:10;98780.25;;;-10.84;75.06
63700;BME280;49845;47.130;142.766;2022-12-18T03:23:56;98804.47;;;-10.49;74.92
63700;BME280;49845;47.130;142.766;2022-12-18T03:26:38;98809.00;;;-10.61;73.83
63700;BME280;49845;47.130;142.766;2022-12-18T03:29:40;98817.38;;;-10.62;74.25
63700;BME280;49845;47.130;142.766;2022-12-18T03:32:42;98812.34;;;-10.62;73.88
63700;BME280;49845;47.130;142.766;2022-12-18T03:35:40;98766.47;;;-11.10;74.08
63700;BME280;49845;47.130;142.766;2022-12-18T03:38:44;98808.47;;;-10.93;74.21
63700;BME280;49845;47.130;142.766;2022-12-18T03:41:31;98781.88;;;-11.04;74.20
63700;BME280;49845;47.130;142.766;2022-12-18T03:44:19;98809.66;;;-10.84;74.06
63700;BME280;49845;47.130;142.766;2022-12-18T03:47:15;98801.97;;;-10.88;73.35
63700;BME280;49845;47.130;142.766;2022-12-18T03:50:11;98810.22;;;-10.72;73.27
63700;BME280;49845;47.130;142.766;2022-12-18T03:53:23;98799.06;;;-10.58;72.27
63700;BME280;49845;47.130;142.766;2022-12-18T03:56:09;98810.75;;;-10.60;71.31
63700;BME280;49845;47.130;142.766;2022-12-18T03:59:29;98812.44;;;-10.78;71.03
63700;BME280;49845;47.130;142.766;2022-12-18T04:02:09;98810.47;;;-10.86;71.32
63700;BME280;49845;47.130;142.766;2022-12-18T04:04:46;98804.88;;;-10.98;71.31
63700;BME280;49845;47.130;142.766;2022-12-18T04:07:28;98755.88;;;-11.21;71.81
63700;BME280;49845;47.130;142.766;2022-12-18T04:10:08;98805.03;;;-10.75;71.81
63700;BME280;49845;47.130;142.766;2022-12-18T04:12:56;98819.25;;;-10.58;70.83
63700;BME280;49845;47.130;142.766;2022-12-18T04:15:40;98810.63;;;-10.63;69.20
63700;BME280;49845;47.130;142.766;2022-12-18T04:18:31;98803.03;;;-10.82;67.75
63700;BME280;49845;47.130;142.766;2022-12-18T04:21:21;98787.47;;;-10.92;67.59
63700;BME280;49845;47.130;142.766;2022-12-18T04:24:16;98809.66;;;-10.84;66.59
63700;BME280;49845;47.130;142.766;2022-12-18T04:26:55;98824.25;;;-10.97;64.76
63700;BME280;49845;47.130;142.766;2022-12-18T04:29:42;98820.66;;;-11.02;64.49
63700;BME280;49845;47.130;142.766;2022-12-18T04:32:27;98815.72;;;-10.99;64.01
63700;BME280;49845;47.130;142.766;2022-12-18T04:35:23;98824.25;;;-10.97;63.59
63700;BME280;49845;47.130;142.766;2022-12-18T04:38:17;98825.34;;;-11.10;62.31
63700;BME280;49845;47.130;142.766;2022-12-18T04:40:56;98808.41;;;-11.12;63.25
63700;BME280;49845;47.130;142.766;2022-12-18T04:43:38;98807.19;;;-11.02;63.55
63700;BME280;49845;47.130;142.766;2022-12-18T04:46:22;98802.59;;;-10.92;63.60
63700;BME280;49845;47.130;142.766;2022-12-18T04:49:06;98808.84;;;-10.83;62.96
63700;BME280;49845;47.130;142.766;2022-12-18T04:51:43;98819.88;;;-10.81;61.31
63700;BME280;49845;47.130;142.766;2022-12-18T04:54:44;98805.00;;;-10.95;60.75
63700;BME280;49845;47.130;142.766;2022-12-18T04:57:33;98825.41;;;-10.90;59.66
63700;BME280;49845;47.130;142.766;2022-12-18T05:00:37;98820.78;;;-10.99;58.94
63700;BME280;49845;47.130;142.766;2022-12-18T05:03:40;98815.16;;;-11.11;58.77
63700;BME280;49845;47.130;142.766;2022-12-18T05:06:33;98817.81;;;-11.27;58.96
63700;BME280;49845;47.130;142.766;2022-12-18T05:09:12;98822.53;;;-11.34;59.42
63700;BME280;49845;47.130;142.766;2022-12-18T05:11:53;98820.38;;;-11.44;58.51
63700;BME280;49845;47.130;142.766;2022-12-18T05:14:29;98816.91;;;-11.46;59.39
63700;BME280;49845;47.130;142.766;2022-12-18T05:17:22;98803.25;;;-11.51;59.09
63700;BME280;49845;47.130;142.766;2022-12-18T05:20:21;98808.00;;;-11.57;58.68
63700;BME280;49845;47.130;142.766;2022-12-18T05:22:56;98815.56;;;-11.57;59.38
63700;BME280;49845;47.130;142.766;2022-12-18T05:25:46;98771.56;;;-11.82;60.10
63700;BME280;49845;47.130;142.766;2022-12-18T05:28:31;98718.34;;;-12.07;59.95
63700;BME280;49845;47.130;142.766;2022-12-18T05:31:17;98813.63;;;-11.45;59.84
63700;BME280;49845;47.130;142.766;2022-12-18T05:37:36;98799.50;;;-11.59;60.12
63700;BME280;49845;47.130;142.766;2022-12-18T05:40:21;98788.25;;;-11.66;60.52
63700;BME280;49845;47.130;142.766;2022-12-18T05:43:11;98793.88;;;-11.72;61.45
63700;BME280;49845;47.130;142.766;2022-12-18T05:45:56;98750.41;;;-12.03;61.94
63700;BME280;49845;47.130;142.766;2022-12-18T05:48:35;98789.41;;;-11.77;62.33
63700;BME280;49845;47.130;142.766;2022-12-18T05:51:32;98789.41;;;-11.77;63.14
63700;BME280;49845;47.130;142.766;2022-12-18T05:54:49;98786.81;;;-11.79;63.25
63700;BME280;49845;47.130;142.766;2022-12-18T05:57:36;98784.28;;;-11.79;63.34
63700;BME280;49845;47.130;142.766;2022-12-18T06:00:22;98789.19;;;-11.82;63.45
63700;BME280;49845;47.130;142.766;2022-12-18T06:03:16;98766.28;;;-11.88;63.37
63700;BME280;49845;47.130;142.766;2022-12-18T06:06:04;98765.97;;;-11.94;63.33
63700;BME280;49845;47.130;142.766;2022-12-18T06:09:04;98766.09;;;-11.91;63.90
63700;BME280;49845;47.130;142.766;2022-12-18T06:12:01;98755.88;;;-11.94;64.50
63700;BME280;49845;47.130;142.766;2022-12-18T06:14:46;98765.09;;;-11.95;64.59
63700;BME280;49845;47.130;142.766;2022-12-18T06:17:34;98764.97;;;-11.98;64.55
63700;BME280;49845;47.130;142.766;2022-12-18T06:20:12;98751.84;;;-12.08;63.99
63700;BME280;49845;47.130;142.766;2022-12-18T06:23:13;98743.06;;;-12.17;63.98
63700;BME280;49845;47.130;142.766;2022-12-18T06:26:03;98750.25;;;-12.24;64.22
63700;BME280;49845;47.130;142.766;2022-12-18T06:29:04;98751.09;;;-12.24;64.89
63700;BME280;49845;47.130;142.766;2022-12-18T06:31:51;98753.69;;;-12.22;65.44
63700;BME280;49845;47.130;142.766;2022-12-18T06:34:49;98734.28;;;-12.25;65.68
63700;BME280;49845;47.130;142.766;2022-12-18T06:37:24;98730.81;;;-12.27;65.74
63700;BME280;49845;47.130;142.766;2022-12-18T06:40:11;98735.13;;;-12.24;66.18
63700;BME280;49845;47.130;142.766;2022-12-18T06:43:04;98723.75;;;-12.34;66.37
63700;BME280;49845;47.130;142.766;2022-12-18T06:45:59;98737.34;;;-12.30;66.19
63700;BME280;49845;47.130;142.766;2022-12-18T06:48:37;98758.78;;;-12.21;66.51
63700;BME280;49845;47.130;142.766;2022-12-18T06:51:17;98754.84;;;-12.16;66.36
63700;BME280;49845;47.130;142.766;2022-12-18T06:54:02;98761.91;;;-12.08;66.52
63700;BME280;49845;47.130;142.766;2022-12-18T06:56:40;98762.56;;;-12.12;65.93
63700;BME280;49845;47.130;142.766;2022-12-18T06:59:17;98774.84;;;-12.19;65.79
63700;BME280;49845;47.130;142.766;2022-12-18T07:02:14;98767.63;;;-12.29;65.70
63700;BME280;49845;47.130;142.766;2022-12-18T07:05:07;98762.44;;;-12.32;65.69
63700;BME280;49845;47.130;142.766;2022-12-18T07:08:20;98776.31;;;-12.40;65.02
63700;BME280;49845;47.130;142.766;2022-12-18T07:11:31;98783.06;;;-12.55;64.78
63700;BME280;49845;47.130;142.766;2022-12-18T07:14:16;98781.06;;;-12.63;65.21
63700;BME280;49845;47.130;142.766;2022-12-18T07:17:28;98795.81;;;-12.69;65.39
63700;BME280;49845;47.130;142.766;2022-12-18T07:20:15;98790.50;;;-12.75;66.07
63700;BME280;49845;47.130;142.766;2022-12-18T07:22:53;98790.84;;;-12.84;66.08
63700;BME280;49845;47.130;142.766;2022-12-18T07:25:33;98784.63;;;-12.90;67.06
63700;BME280;49845;47.130;142.766;2022-12-18T07:28:37;98792.66;;;-12.97;67.37
63700;BME280;49845;47.130;142.766;2022-12-18T07:31:21;98803.34;;;-13.01;67.41
63700;BME280;49845;47.130;142.766;2022-12-18T07:34:09;98771.13;;;-13.25;67.65
63700;BME280;49845;47.130;142.766;2022-12-18T07:36:53;98800.19;;;-13.14;68.01
63700;BME280;49845;47.130;142.766;2022-12-18T07:39:31;98793.09;;;-13.21;68.03
63700;BME280;49845;47.130;142.766;2022-12-18T07:42:11;98804.53;;;-13.26;68.08
63700;BME280;49845;47.130;142.766;2022-12-18T07:45:04;98804.97;;;-13.35;68.77
63700;BME280;49845;47.130;142.766;2022-12-18T07:47:59;98801.94;;;-13.44;68.91
63700;BME280;49845;47.130;142.766;2022-12-18T07:51:01;98804.91;;;-13.51;69.11
63700;BME280;49845;47.130;142.766;2022-12-18T07:53:56;98807.09;;;-13.57;69.22
63700;BME280;49845;47.130;142.766;2022-12-18T07:56:52;98815.31;;;-13.60;69.52
63700;BME280;49845;47.130;142.766;2022-12-18T07:59:54;98805.88;;;-13.64;69.63
63700;BME280;49845;47.130;142.766;2022-12-18T08:02:35;98807.78;;;-13.60;69.85
63700;BME280;49845;47.130;142.766;2022-12-18T08:05:35;98804.66;;;-13.56;69.87
63700;BME280;49845;47.130;142.766;2022-12-18T08:08:35;98810.78;;;-13.51;69.93
63700;BME280;49845;47.130;142.766;2022-12-18T08:11:33;98814.19;;;-13.50;69.66
63700;BME280;49845;47.130;142.766;2022-12-18T08:14:11;98812.09;;;-13.42;69.77
63700;BME280;49845;47.130;142.766;2022-12-18T08:16:49;98815.38;;;-13.43;69.95
63700;BME280;49845;47.130;142.766;2022-12-18T08:19:52;98820.56;;;-13.40;70.04
63700;BME280;49845;47.130;142.766;2022-12-18T08:22:30;98826.53;;;-13.38;70.19
63700;BME280;49845;47.130;142.766;2022-12-18T08:25:20;98828.88;;;-13.41;70.08
63700;BME280;49845;47.130;142.766;2022-12-18T08:28:03;98820.38;;;-13.43;70.26
63700;BME280;49845;47.130;142.766;2022-12-18T08:31:15;98833.59;;;-13.48;70.13
63700;BME280;49845;47.130;142.766;2022-12-18T08:33:52;98823.28;;;-13.52;69.99
63700;BME280;49845;47.130;142.766;2022-12-18T08:36:39;98822.94;;;-13.58;70.34
63700;BME280;49845;47.130;142.766;2022-12-18T08:39:43;98819.41;;;-13.62;70.80
63700;BME280;49845;47.130;142.766;2022-12-18T08:42:42;98829.75;;;-13.56;71.07
63700;BME280;49845;47.130;142.766;2022-12-18T08:45:39;98819.41;;;-13.62;71.34
63700;BME280;49845;47.130;142.766;2022-12-18T08:48:18;98825.69;;;-13.54;71.60
63700;BME280;49845;47.130;142.766;2022-12-18T08:50:56;98829.94;;;-13.53;71.94
63700;BME280;49845;47.130;142.766;2022-12-18T08:53:51;98823.53;;;-13.48;72.18
63700;BME280;49845;47.130;142.766;2022-12-18T08:56:45;98828.88;;;-13.41;71.91
63700;BME280;49845;47.130;142.766;2022-12-18T08:59:36;98827.16;;;-13.42;72.14
63700;BME280;49845;47.130;142.766;2022-12-18T09:02:18;98827.16;;;-13.42;72.37
63700;BME280;49845;47.130;142.766;2022-12-18T09:05:02;98829.56;;;-13.29;71.92
63700;BME280;49845;47.130;142.766;2022-12-18T09:07:51;98824.81;;;-13.23;71.36
63700;BME280;49845;47.130;142.766;2022-12-18T09:10:43;98808.75;;;-13.27;71.11
63700;BME280;49845;47.130;142.766;2022-12-18T09:13:23;98817.28;;;-13.23;71.06
63700;BME280;49845;47.130;142.766;2022-12-18T09:16:12;98828.94;;;-13.09;70.89
63700;BME280;49845;47.130;142.766;2022-12-18T09:18:49;98818.56;;;-13.15;70.75
63700;BME280;49845;47.130;142.766;2022-12-18T09:21:51;98831.00;;;-13.01;70.59
63700;BME280;49845;47.130;142.766;2022-12-18T09:24:41;98753.81;;;-13.35;70.49
63700;BME280;49845;47.130;142.766;2022-12-18T09:27:33;98805.84;;;-13.01;70.27
63700;BME280;49845;47.130;142.766;2022-12-18T09:30:19;98816.56;;;-12.89;70.09
63700;BME280;49845;47.130;142.766;2022-12-18T09:33:25;98820.72;;;-12.90;70.20
63700;BME280;49845;47.130;142.766;2022-12-18T09:36:13;98823.16;;;-12.91;69.93
63700;BME280;49845;47.130;142.766;2022-12-18T09:38:55;98831.31;;;-12.95;69.89
63700;BME280;49845;47.130;142.766;2022-12-18T09:42:16;98827.69;;;-13.00;69.99
63700;BME280;49845;47.130;142.766;2022-12-18T09:45:08;98807.25;;;-13.07;70.09
63700;BME280;49845;47.130;142.766;2022-12-18T09:48:01;98829.44;;;-12.99;70.00
63700;BME280;49845;47.130;142.766;2022-12-18T09:51:12;98836.03;;;-13.01;70.09
63700;BME280;49845;47.130;142.766;2022-12-18T09:53:50;98835.88;;;-13.05;70.19
63700;BME280;49845;47.130;142.766;2022-12-18T09:56:40;98838.28;;;-13.06;70.15
63700;BME280;49845;47.130;142.766;2022-12-18T09:59:53;98823.75;;;-13.12;70.13
63700;BME280;49845;47.130;142.766;2022-12-18T10:02:32;98830.34;;;-13.14;70.27
63700;BME280;49845;47.130;142.766;2022-12-18T10:05:10;98838.22;;;-13.08;70.53
63700;BME280;49845;47.130;142.766;2022-12-18T10:08:37;98826.25;;;-13.28;70.92
63700;BME280;49845;47.130;142.766;2022-12-18T10:11:48;98865.88;;;-13.08;71.00
63700;BME280;49845;47.130;142.766;2022-12-18T10:15:05;98871.06;;;-13.05;70.91
63700;BME280;49845;47.130;142.766;2022-12-18T10:18:20;98872.78;;;-13.04;71.00
63700;BME280;49845;47.130;142.766;2022-12-18T10:21:17;98869.66;;;-12.99;70.99
63700;BME280;49845;47.130;142.766;2022-12-18T10:24:24;98855.97;;;-13.05;70.82
63700;BME280;49845;47.130;142.766;2022-12-18T10:27:13;98875.00;;;-12.93;70.85
63700;BME280;49845;47.130;142.766;2022-12-18T10:29:56;98870.78;;;-12.94;70.66
63700;BME280;49845;47.130;142.766;2022-12-18T10:32:43;98888.34;;;-12.79;70.83
63700;BME280;49845;47.130;142.766;2022-12-18T10:35:57;98895.59;;;-12.69;70.99
63700;BME280;49845;47.130;142.766;2022-12-18T10:38:41;98895.13;;;-12.62;70.70
63700;BME280;49845;47.130;142.766;2022-12-18T10:41:56;98898.50;;;-12.62;70.41
63700;BME280;49845;47.130;142.766;2022-12-18T10:45:20;98899.91;;;-12.67;69.88
63700;BME280;49845;47.130;142.766;2022-12-18T10:48:22;98904.78;;;-12.70;70.13
63700;BME280;49845;47.130;142.766;2022-12-18T10:51:16;98913.44;;;-12.65;70.30
63700;BME280;49845;47.130;142.766;2022-12-18T10:54:05;98910.47;;;-12.57;70.47
63700;BME280;49845;47.130;142.766;2022-12-18T11:00:44;98918.94;;;-12.55;70.87
63700;BME280;49845;47.130;142.766;2022-12-18T11:03:39;98927.59;;;-12.50;70.80
63700;BME280;49845;47.130;142.766;2022-12-18T11:06:24;98922.09;;;-12.43;70.93
63700;BME280;49845;47.130;142.766;2022-12-18T11:09:18;98926.22;;;-12.45;70.34
63700;BME280;49845;47.130;142.766;2022-12-18T11:12:30;98887.94;;;-12.71;70.09
63700;BME280;49845;47.130;142.766;2022-12-18T11:15:29;98861.66;;;-12.92;70.88
63700;BME280;49845;47.130;142.766;2022-12-18T11:18:26;98913.44;;;-12.65;70.76
63700;BME280;49845;47.130;142.766;2022-12-18T11:21:25;98915.81;;;-12.68;71.03
63700;BME280;49845;47.130;142.766;2022-12-18T11:24:36;98930.69;;;-12.87;71.63
63700;BME280;49845;47.130;142.766;2022-12-18T11:27:47;98911.63;;;-12.98;71.95
63700;BME280;49845;47.130;142.766;2022-12-18T11:30:49;98926.16;;;-12.93;72.02
63700;BME280;49845;47.130;142.766;2022-12-18T11:34:05;98916.81;;;-12.95;72.29
63700;BME280;49845;47.130;142.766;2022-12-18T11:37:06;98921.69;;;-12.98;72.38
63700;BME280;49845;47.130;142.766;2022-12-18T11:40:17;98923.44;;;-12.97;72.42
63700;BME280;49845;47.130;142.766;2022-12-18T11:42:57;98904.44;;;-13.07;72.70
63700;BME280;49845;47.130;142.766;2022-12-18T11:45:47;98915.09;;;-12.96;72.85
63700;BME280;49845;47.130;142.766;2022-12-18T11:48:30;98920.44;;;-12.90;73.10
63700;BME280;49845;47.130;142.766;2022-12-18T11:51:37;98898.72;;;-13.05;72.91
63700;BME280;49845;47.130;142.766;2022-12-18T11:54:23;98912.84;;;-13.07;73.18
63700;BME280;49845;47.130;142.766;2022-12-18T11:57:04;98862.16;;;-13.45;73.43
63700;BME280;49845;47.130;142.766;2022-12-18T12:00:13;98809.63;;;-13.72;73.53
63700;BME280;49845;47.130;142.766;2022-12-18T12:03:32;98918.19;;;-13.00;73.92
63700;BME280;49845;47.130;142.766;2022-12-18T12:07:05;98917.31;;;-12.86;74.11
63700;BME280;49845;47.130;142.766;2022-12-18T12:09:53;98915.38;;;-12.75;73.75
63700;BME280;49845;47.130;142.766;2022-12-18T12:13:10;98914.41;;;-12.63;73.73
63700;BME280;49845;47.130;142.766;2022-12-18T12:16:07;98917.06;;;-12.60;73.20
63700;BME280;49845;47.130;142.766;2022-12-18T12:19:27;98915.00;;;-12.50;73.08
63700;BME280;49845;47.130;142.766;2022-12-18T12:22:36;98910.63;;;-12.54;72.69
63700;BME280;49845;47.130;142.766;2022-12-18T12:25:27;98906.66;;;-12.66;72.34
63700;BME280;49845;47.130;142.766;2022-12-18T12:28:49;98922.66;;;-12.65;72.58
63700;BME280;49845;47.130;142.766;2022-12-18T12:31:47;98920.19;;;-12.64;72.77
63700;BME280;49845;47.130;142.766;2022-12-18T12:34:52;98930.41;;;-12.61;72.62
63700;BME280;49845;47.130;142.766;2022-12-18T12:37:49;98925.56;;;-12.57;72.81
63700;BME280;49845;47.130;142.766;2022-12-18T12:40:39;98920.69;;;-12.54;72.85
63700;BME280;49845;47.130;142.766;2022-12-18T12:43:41;98905.75;;;-12.68;72.78
63700;BME280;49845;47.130;142.766;2022-12-18T12:46:23;98915.66;;;-12.54;72.93
63700;BME280;49845;47.130;142.766;2022-12-18T12:49:17;98901.63;;;-12.66;72.69
63700;BME280;49845;47.130;142.766;2022-12-18T12:52:15;98921.31;;;-12.58;72.58
63700;BME280;49845;47.130;142.766;2022-12-18T12:55:11;98922.88;;;-12.61;72.85
63700;BME280;49845;47.130;142.766;2022-12-18T12:58:21;98935.63;;;-12.57;72.96
63700;BME280;49845;47.130;142.766;2022-12-18T13:01:23;98932.13;;;-12.45;73.14
63700;BME280;49845;47.130;142.766;2022-12-18T13:04:15;98932.97;;;-12.44;73.09
63700;BME280;49845;47.130;142.766;2022-12-18T13:07:04;98938.16;;;-12.41;73.02
63700;BME280;49845;47.130;142.766;2022-12-18T13:10:30;98941.13;;;-12.48;73.04
63700;BME280;49845;47.130;142.766;2022-12-18T13:13:17;98947.91;;;-12.47;73.16
63700;BME280;49845;47.130;142.766;2022-12-18T13:16:07;98940.97;;;-12.51;72.79
63700;BME280;49845;47.130;142.766;2022-12-18T13:18:54;98939.06;;;-12.55;73.12
63700;BME280;49845;47.130;142.766;2022-12-18T13:21:37;98950.72;;;-12.57;73.45
63700;BME280;49845;47.130;142.766;2022-12-18T13:24:32;98949.38;;;-12.51;73.54
63700;BME280;49845;47.130;142.766;2022-12-18T13:30:58;98940.19;;;-12.50;73.63
63700;BME280;49845;47.130;142.766;2022-12-18T13:33:44;98939.41;;;-12.49;73.87
63700;BME280;49845;47.130;142.766;2022-12-18T13:36:52;98932.00;;;-12.63;73.72
63700;BME280;49845;47.130;142.766;2022-12-18T13:39:39;98942.78;;;-12.65;73.73
63700;BME280;49845;47.130;142.766;2022-12-18T13:42:40;98942.22;;;-12.60;73.97
63700;BME280;49845;47.130;142.766;2022-12-18T13:45:44;98950.13;;;-12.37;74.43
63700;BME280;49845;47.130;142.766;2022-12-18T13:48:49;98951.84;;;-12.36;74.22
63700;BME280;49845;47.130;142.766;2022-12-18T13:51:43;98943.34;;;-12.38;73.96
63700;BME280;49845;47.130;142.766;2022-12-18T13:54:33;98927.69;;;-12.49;73.72
63700;BME280;49845;47.130;142.766;2022-12-18T13:57:35;98892.81;;;-12.74;73.52
63700;BME280;49845;47.130;142.766;2022-12-18T14:00:35;98952.59;;;-12.53;73.71
63700;BME280;49845;47.130;142.766;2022-12-18T14:03:39;98952.28;;;-12.60;73.41
63700;BME280;49845;47.130;142.766;2022-12-18T14:06:30;98940.31;;;-12.64;73.48
63700;BME280;49845;47.130;142.766;2022-12-18T14:09:19;98957.63;;;-12.53;73.40
63700;BME280;49845;47.130;142.766;2022-12-18T14:12:05;98949.94;;;-12.56;73.57
63700;BME280;49845;47.130;142.766;2022-12-18T14:15:05;98957.31;;;-12.60;73.17
63700;BME280;49845;47.130;142.766;2022-12-18T14:21:14;98946.97;;;-12.95;73.33
63700;BME280;49845;47.130;142.766;2022-12-18T14:24:18;98956.06;;;-12.68;73.49
63700;BME280;49845;47.130;142.766;2022-12-18T14:27:13;98952.50;;;-12.71;73.28
63700;BME280;49845;47.130;142.766;2022-12-18T14:29:59;98959.47;;;-12.82;73.46
63700;BME280;49845;47.130;142.766;2022-12-18T14:32:37;98961.19;;;-12.81;73.52
63700;BME280;49845;47.130;142.766;2022-12-18T14:35:32;98954.75;;;-12.76;73.47
63700;BME280;49845;47.130;142.766;2022-12-18T14:38:35;98966.38;;;-12.78;73.15
63700;BME280;49845;47.130;142.766;2022-12-18T14:41:15;98975.22;;;-12.70;73.36
63700;BME280;49845;47.130;142.766;2022-12-18T14:44:15;98969.97;;;-12.58;73.11
63700;BME280;49845;47.130;142.766;2022-12-18T14:47:27;98974.91;;;-12.45;72.83
63700;BME280;49845;47.130;142.766;2022-12-18T14:50:13;98975.16;;;-12.40;72.53
63700;BME280;49845;47.130;142.766;2022-12-18T14:52:59;98982.06;;;-12.36;72.33
63700;BME280;49845;47.130;142.766;2022-12-18T14:55:46;98985.38;;;-12.37;72.17